createdAt,value
2023-04-10T00:02:04.998Z,100.00
2023-04-10T00:04:40.927Z,100.00
2023-04-10T00:07:12.168Z,100.00
2023-04-10T00:09:41.203Z,100.00
2023-04-10T00:12:18.172Z,100.00
2023-04-10T00:14:51.706Z,100.00
2023-04-10T00:17:23.042Z,100.00
2023-04-10T00:19:51.958Z,100.00
2023-04-10T00:22:27.123Z,100.00
2023-04-10T00:24:56.101Z,100.00
2023-04-10T00:27:27.400Z,100.00
2023-04-10T00:29:56.283Z,100.00
2023-04-10T00:32:25.914Z,100.00
2023-04-10T00:34:58.662Z,100.00
2023-04-10T00:37:27.944Z,100.00
2023-04-10T00:39:56.686Z,100.00
2023-04-10T00:42:26.633Z,100.00
2023-04-10T00:44:55.411Z,100.00
2023-04-10T00:47:27.802Z,100.00
2023-04-10T00:49:57.534Z,100.00
2023-04-10T00:52:26.620Z,100.00
2023-04-10T00:54:55.995Z,100.00
2023-04-10T00:57:25.049Z,100.00
2023-04-10T00:59:56.563Z,100.00
2023-04-10T01:02:26.467Z,100.00
2023-04-10T01:04:56.045Z,100.00
2023-04-10T01:07:28.154Z,100.00
2023-04-10T01:10:09.186Z,100.00
2023-04-10T01:12:38.398Z,100.00
2023-04-10T01:15:11.067Z,100.00
2023-04-10T01:17:55.641Z,100.00
2023-04-10T01:20:25.249Z,100.00
2023-04-10T01:22:55.703Z,100.00
2023-04-10T01:25:30.424Z,100.00
2023-04-10T01:28:06.346Z,100.00
2023-04-10T01:30:35.982Z,100.00
2023-04-10T01:33:06.213Z,100.00
2023-04-10T01:35:35.087Z,100.00
2023-04-10T01:38:03.861Z,100.00
2023-04-10T01:40:32.844Z,100.00
2023-04-10T01:43:04.305Z,100.00
2023-04-10T01:45:44.234Z,100.00
2023-04-10T01:48:12.867Z,100.00
2023-04-10T01:50:42.350Z,100.00
2023-04-10T01:53:11.405Z,100.00
2023-04-10T01:55:41.098Z,100.00
2023-04-10T01:58:11.299Z,100.00
2023-04-10T02:00:42.206Z,100.00
2023-04-10T02:03:11.803Z,100.00
2023-04-10T02:05:49.274Z,100.00
2023-04-10T02:08:20.063Z,100.00
2023-04-10T02:10:52.484Z,100.00
2023-04-10T02:13:21.846Z,100.00
2023-04-10T02:15:52.787Z,100.00
2023-04-10T02:18:22.435Z,100.00
2023-04-10T02:20:51.344Z,100.00
2023-04-10T02:23:20.942Z,100.00
2023-04-10T02:25:50.183Z,100.00
2023-04-10T03:18:55.321Z,100.00
2023-04-10T03:21:29.026Z,100.00
2023-04-10T03:23:58.393Z,100.00
2023-04-10T03:26:28.827Z,100.00
2023-04-10T03:28:59.437Z,100.00
2023-04-10T03:31:28.423Z,100.00
2023-04-10T03:33:59.583Z,100.00
2023-04-10T03:36:28.767Z,100.00
2023-04-10T03:38:57.840Z,100.00
2023-04-10T03:41:27.664Z,100.00
2023-04-10T03:43:57.184Z,100.00
2023-04-10T03:46:26.496Z,100.00
2023-04-10T03:48:55.771Z,100.00
2023-04-10T03:51:25.020Z,100.00
2023-04-10T03:53:54.256Z,100.00
2023-04-10T03:56:23.919Z,100.00
2023-04-10T03:58:55.865Z,100.00
2023-04-10T04:01:26.714Z,100.00
2023-04-10T04:04:02.362Z,100.00
2023-04-10T04:06:52.983Z,100.00
2023-04-10T04:09:48.390Z,100.00
2023-04-10T04:12:42.607Z,100.00
2023-04-10T04:15:25.451Z,100.00
2023-04-10T04:18:16.939Z,100.00
2023-04-10T04:20:53.505Z,100.00
2023-04-10T04:23:43.695Z,100.00
2023-04-10T04:26:25.503Z,100.00
2023-04-10T04:29:17.204Z,100.00
2023-04-10T04:32:02.432Z,100.00
2023-04-10T04:34:56.935Z,100.00
2023-04-10T04:37:53.498Z,100.00
2023-04-10T04:40:49.703Z,100.00
2023-04-10T04:43:49.827Z,100.00
2023-04-10T04:46:37.807Z,100.00
2023-04-10T04:49:25.261Z,100.00
2023-04-10T04:52:24.199Z,100.00
2023-04-10T04:55:12.066Z,100.00
2023-04-10T04:58:04.525Z,100.00
2023-04-10T05:00:48.830Z,100.00
2023-04-10T05:03:48.058Z,100.00
2023-04-10T05:06:36.454Z,100.00
2023-04-10T05:09:44.223Z,100.00
2023-04-10T05:12:34.895Z,100.00
2023-04-10T05:15:40.241Z,100.00
2023-04-10T05:18:24.066Z,100.00
2023-04-10T05:21:05.675Z,100.00
2023-04-10T05:24:02.276Z,100.00
2023-04-10T05:26:52.167Z,100.00
2023-04-10T05:29:47.356Z,100.00
2023-04-10T05:32:35.436Z,100.00
2023-04-10T05:35:24.148Z,100.00
2023-04-10T05:38:04.653Z,100.00
2023-04-10T05:40:56.995Z,100.00
2023-04-10T05:43:58.111Z,100.00
2023-04-10T05:46:48.572Z,100.00
2023-04-10T05:49:29.482Z,100.00
2023-04-10T05:52:10.702Z,100.00
2023-04-10T05:54:52.700Z,100.00
2023-04-10T05:57:56.564Z,100.00
2023-04-10T06:00:35.477Z,100.00
2023-04-10T06:03:24.569Z,100.00
2023-04-10T06:05:58.337Z,100.00
2023-04-10T06:08:27.855Z,100.00
2023-04-10T06:10:58.213Z,100.00
2023-04-10T06:13:28.058Z,100.00
2023-04-10T06:16:01.600Z,100.00
2023-04-10T06:18:31.639Z,100.00
2023-04-10T06:21:02.562Z,100.00
2023-04-10T06:23:45.788Z,100.00
2023-04-10T06:26:16.030Z,100.00
2023-04-10T06:28:45.545Z,100.00
2023-04-10T06:31:22.662Z,100.00
2023-04-10T06:33:52.641Z,100.00
2023-04-10T06:36:22.373Z,100.00
2023-04-10T06:39:00.140Z,100.00
2023-04-10T06:41:30.356Z,100.00
2023-04-10T06:44:09.604Z,100.00
2023-04-10T06:46:39.452Z,100.00
2023-04-10T06:49:08.788Z,100.00
2023-04-10T06:51:38.566Z,100.00
2023-04-10T06:54:07.585Z,100.00
2023-04-10T06:56:36.918Z,100.00
2023-04-10T06:59:07.115Z,100.00
2023-04-10T07:01:37.102Z,100.00
2023-04-10T07:04:06.337Z,100.00
2023-04-10T07:06:40.272Z,100.00
2023-04-10T07:09:11.137Z,100.00
2023-04-10T07:11:40.648Z,100.00
2023-04-10T07:14:09.624Z,100.00
2023-04-10T07:16:38.731Z,100.00
2023-04-10T07:19:09.351Z,100.00
2023-04-10T07:21:38.615Z,100.00
2023-04-10T07:24:10.133Z,100.00
2023-04-10T07:26:40.087Z,100.00
2023-04-10T07:29:09.985Z,100.00
2023-04-10T07:31:41.247Z,100.00
2023-04-10T07:34:13.406Z,100.00
2023-04-10T07:36:43.940Z,100.00
2023-04-10T07:39:14.981Z,100.00
2023-04-10T07:41:44.427Z,100.00
2023-04-10T07:44:20.957Z,100.00
2023-04-10T07:46:51.060Z,100.00
2023-04-10T07:49:20.331Z,100.00
2023-04-10T07:51:49.409Z,100.00
2023-04-10T07:54:18.902Z,100.00
2023-04-10T07:56:47.983Z,100.00
2023-04-10T07:59:17.083Z,100.00
2023-04-10T08:01:46.419Z,100.00
2023-04-10T08:04:16.863Z,100.00
2023-04-10T08:06:46.572Z,100.00
2023-04-10T08:09:16.088Z,100.00
2023-04-10T08:11:48.236Z,100.00
2023-04-10T08:14:18.256Z,100.00
2023-04-10T08:16:55.137Z,100.00
2023-04-10T08:19:25.044Z,100.00
2023-04-10T08:21:54.222Z,100.00
2023-04-10T08:24:26.760Z,100.00
2023-04-10T08:27:16.820Z,100.00
2023-04-10T08:29:47.164Z,100.00
2023-04-10T08:32:16.364Z,100.00
2023-04-10T08:34:45.607Z,100.00
2023-04-10T08:37:16.681Z,100.00
2023-04-10T08:39:46.286Z,100.00
2023-04-10T08:42:22.876Z,100.00
2023-04-10T08:44:54.313Z,100.00
2023-04-10T08:47:23.251Z,100.00
2023-04-10T08:49:56.985Z,100.00
2023-04-10T08:52:26.616Z,100.00
2023-04-10T08:54:56.742Z,100.00
2023-04-10T08:57:27.417Z,100.00
2023-04-10T08:59:56.480Z,100.00
2023-04-10T09:02:27.133Z,100.00
2023-04-10T09:04:56.321Z,100.00
2023-04-10T09:07:25.423Z,100.00
2023-04-10T09:10:01.516Z,100.00
2023-04-10T09:12:35.114Z,100.00
2023-04-10T09:15:04.477Z,100.00
2023-04-10T09:17:34.338Z,100.00
2023-04-10T09:20:04.204Z,100.00
2023-04-10T09:22:36.918Z,100.00
2023-04-10T09:25:36.216Z,100.00
2023-04-10T09:28:10.359Z,100.00
2023-04-10T09:30:41.227Z,100.00
2023-04-10T09:33:30.702Z,100.00
2023-04-10T09:36:04.721Z,100.00
2023-04-10T09:38:35.274Z,100.00
2023-04-10T09:41:09.004Z,100.00
2023-04-10T09:43:39.662Z,100.00
2023-04-10T09:46:29.317Z,100.00
2023-04-10T09:48:59.916Z,100.00
2023-04-10T09:51:31.614Z,100.00
2023-04-10T09:54:01.458Z,100.00
2023-04-10T09:56:31.072Z,100.00
2023-04-10T09:59:01.726Z,100.00
2023-04-10T10:01:35.282Z,100.00
2023-04-10T10:04:05.057Z,100.00
2023-04-10T10:06:35.110Z,100.00
2023-04-10T10:09:06.750Z,100.00
2023-04-10T10:11:36.233Z,100.00
2023-04-10T10:14:09.950Z,100.00
2023-04-10T10:16:44.715Z,100.00
2023-04-10T10:19:53.457Z,100.00
2023-04-10T10:22:26.585Z,100.00
2023-04-10T10:24:57.404Z,100.00
2023-04-10T10:27:27.948Z,100.00
2023-04-10T10:30:20.250Z,100.00
2023-04-10T10:32:55.013Z,100.00
2023-04-10T10:35:27.965Z,100.00
2023-04-10T10:38:05.036Z,100.00
2023-04-10T10:40:39.489Z,100.00
2023-04-10T10:43:12.729Z,100.00
2023-04-10T10:45:47.577Z,100.00
2023-04-10T10:48:17.234Z,100.00
2023-04-10T10:50:58.625Z,100.00
2023-04-10T10:53:44.527Z,100.00
2023-04-10T10:56:24.469Z,100.00
2023-04-10T10:58:57.969Z,100.00
2023-04-10T11:01:27.908Z,100.00
2023-04-10T11:04:00.540Z,100.00
2023-04-10T11:06:59.207Z,100.00
2023-04-10T11:09:52.287Z,100.00
2023-04-10T11:12:24.050Z,100.00
2023-04-10T11:15:00.450Z,100.00
2023-04-10T11:17:52.853Z,100.00
2023-04-10T11:20:29.202Z,100.00
2023-04-10T11:23:08.897Z,100.00
2023-04-10T11:25:54.365Z,100.00
2023-04-10T11:28:36.909Z,100.00
2023-04-10T11:31:23.076Z,100.00
2023-04-10T11:34:01.840Z,100.00
2023-04-10T11:36:31.216Z,99.97
2023-04-10T11:39:03.245Z,99.01
2023-04-10T11:41:33.820Z,97.93
2023-04-10T11:44:04.486Z,95.78
2023-04-10T11:46:37.496Z,95.56
2023-04-10T11:49:07.534Z,95.70
2023-04-10T11:51:41.189Z,93.69
2023-04-10T11:54:15.094Z,92.55
2023-04-10T11:56:47.696Z,91.36
2023-04-10T11:59:20.149Z,92.03
2023-04-10T12:01:49.409Z,91.62
2023-04-10T12:04:19.269Z,91.40
2023-04-10T12:06:52.957Z,91.61
2023-04-10T12:09:21.733Z,91.74
2023-04-10T12:11:53.372Z,92.00
2023-04-10T12:14:24.608Z,90.49
2023-04-10T12:16:54.350Z,90.69
2023-04-10T12:19:24.027Z,88.32
2023-04-10T12:21:52.871Z,85.89
2023-04-10T12:24:41.880Z,84.73
2023-04-10T12:27:23.877Z,84.41
2023-04-10T12:29:54.027Z,84.80
2023-04-10T12:32:23.319Z,85.04
2023-04-10T12:35:01.701Z,85.71
2023-04-10T12:38:06.991Z,86.77
2023-04-10T12:40:38.823Z,85.61
2023-04-10T12:43:07.821Z,83.41
2023-04-10T12:45:44.892Z,81.87
2023-04-10T12:48:14.091Z,80.12
2023-04-10T12:50:48.328Z,80.49
2023-04-10T12:53:17.485Z,81.56
2023-04-10T12:55:59.783Z,81.08
2023-04-10T12:58:31.543Z,78.23
2023-04-10T13:01:06.328Z,77.74
2023-04-10T13:03:36.956Z,76.80
2023-04-10T13:06:08.371Z,72.33
2023-04-10T13:08:37.507Z,67.92
2023-04-10T13:11:08.761Z,66.14
2023-04-10T13:13:39.566Z,65.31
2023-04-10T13:16:13.033Z,65.53
2023-04-10T13:18:42.573Z,65.22
2023-04-10T13:21:11.531Z,65.01
2023-04-10T13:23:42.905Z,63.32
2023-04-10T13:26:11.944Z,63.06
2023-04-10T13:28:40.807Z,63.47
2023-04-10T13:31:09.892Z,65.40
2023-04-10T13:33:38.993Z,69.78
2023-04-10T13:36:10.050Z,73.73
2023-04-10T13:38:38.973Z,75.94
2023-04-10T13:41:07.864Z,77.39
2023-04-10T13:43:37.906Z,77.78
2023-04-10T13:46:06.974Z,77.89
2023-04-10T13:48:41.616Z,78.37
2023-04-10T13:51:10.745Z,78.62
2023-04-10T13:53:42.571Z,78.38
2023-04-10T13:56:11.739Z,77.12
2023-04-10T13:58:40.511Z,77.39
2023-04-10T14:01:12.883Z,77.56
2023-04-10T14:03:42.804Z,78.08
2023-04-10T14:06:11.856Z,79.14
2023-04-10T14:08:41.897Z,77.56
2023-04-10T14:11:10.967Z,77.00
2023-04-10T14:13:39.836Z,77.67
2023-04-10T14:16:08.934Z,77.95
2023-04-10T14:18:37.844Z,77.29
2023-04-10T14:21:09.438Z,77.10
2023-04-10T14:23:41.498Z,76.26
2023-04-10T14:26:10.325Z,76.55
2023-04-10T14:28:39.688Z,76.60
2023-04-10T14:31:08.633Z,76.81
2023-04-10T14:33:38.803Z,76.46
2023-04-10T14:36:08.528Z,76.51
2023-04-10T14:38:37.331Z,76.77
2023-04-10T14:41:06.624Z,77.07
2023-04-10T14:43:35.347Z,77.57
2023-04-10T14:46:04.752Z,77.83
2023-04-10T14:48:33.933Z,78.44
2023-04-10T14:51:04.929Z,78.19
2023-04-10T14:53:36.081Z,78.35
2023-04-10T14:56:11.599Z,78.47
2023-04-10T14:58:41.118Z,78.17
2023-04-10T15:01:13.573Z,78.78
2023-04-10T15:03:42.961Z,78.46
2023-04-10T15:06:12.781Z,78.44
2023-04-10T15:08:41.659Z,78.57
2023-04-10T15:11:10.534Z,78.57
2023-04-10T15:13:40.725Z,77.23
2023-04-10T15:16:09.497Z,76.29
2023-04-10T15:18:38.226Z,76.29
2023-04-10T15:21:08.311Z,75.96
2023-04-10T15:23:37.057Z,75.93
2023-04-10T15:26:06.068Z,75.00
2023-04-10T15:28:37.312Z,75.04
2023-04-10T15:31:06.514Z,75.56
2023-04-10T15:33:52.483Z,75.40
2023-04-10T15:36:22.937Z,75.24
2023-04-10T15:38:59.085Z,74.80
2023-04-10T15:41:28.495Z,74.79
2023-04-10T15:43:57.727Z,74.91
2023-04-10T15:46:27.411Z,74.69
2023-04-10T15:48:56.416Z,74.99
2023-04-10T15:51:27.483Z,74.46
2023-04-10T15:53:56.530Z,75.32
2023-04-10T15:56:25.784Z,75.06
2023-04-10T15:58:56.658Z,74.86
2023-04-10T16:01:26.143Z,74.96
2023-04-10T16:04:04.700Z,74.64
2023-04-10T16:06:34.505Z,75.18
2023-04-10T16:09:07.828Z,75.16
2023-04-10T16:11:42.062Z,75.46
2023-04-10T16:14:11.244Z,75.15
2023-04-10T16:16:40.318Z,75.24
2023-04-10T16:19:10.290Z,75.25
2023-04-10T16:21:39.913Z,75.15
2023-04-10T16:24:08.988Z,74.90
2023-04-10T16:26:43.709Z,75.36
2023-04-10T16:29:12.751Z,76.34
2023-04-10T16:31:41.791Z,77.82
2023-04-10T16:34:10.758Z,80.14
2023-04-10T16:36:40.524Z,82.29
2023-04-10T16:39:09.447Z,83.02
2023-04-10T16:41:38.853Z,83.88
2023-04-10T16:44:07.822Z,85.37
2023-04-10T16:46:36.978Z,87.01
2023-04-10T16:49:06.052Z,88.06
2023-04-10T16:51:34.903Z,88.98
2023-04-10T16:54:04.390Z,90.43
2023-04-10T16:56:33.757Z,92.20
2023-04-10T16:59:05.287Z,93.10
2023-04-10T17:01:40.048Z,94.45
2023-04-10T17:04:09.699Z,95.51
2023-04-10T17:06:40.547Z,96.52
2023-04-10T17:09:09.972Z,98.04
2023-04-10T17:11:39.204Z,99.18
2023-04-10T17:14:08.540Z,99.85
2023-04-10T17:16:37.604Z,100.00
2023-04-10T17:19:06.860Z,100.00
2023-04-10T17:21:36.164Z,100.00
2023-04-10T17:24:10.702Z,100.00
2023-04-10T17:26:40.421Z,100.00
2023-04-10T17:29:09.383Z,100.00
2023-04-10T17:31:38.505Z,100.00
2023-04-10T17:34:07.649Z,100.00
2023-04-10T17:36:39.230Z,100.00
2023-04-10T17:39:08.018Z,100.00
2023-04-10T17:41:37.065Z,100.00
2023-04-10T17:44:06.612Z,99.31
2023-04-10T17:46:35.710Z,98.28
2023-04-10T17:49:07.428Z,97.19
2023-04-10T17:51:40.523Z,96.54
2023-04-10T17:54:09.628Z,96.30
2023-04-10T17:56:38.849Z,95.48
2023-04-10T17:59:11.626Z,95.19
2023-04-10T18:01:41.238Z,94.89
2023-04-10T18:04:10.411Z,94.83
2023-04-10T18:06:41.224Z,94.81
2023-04-10T18:09:10.042Z,94.52
2023-04-10T18:11:40.355Z,94.77
2023-04-10T18:14:18.649Z,94.85
2023-04-10T18:16:49.297Z,95.02
2023-04-10T18:19:18.089Z,94.98
2023-04-10T18:21:50.544Z,95.37
2023-04-10T18:24:19.276Z,95.20
2023-04-10T18:26:49.677Z,95.35
2023-04-10T18:29:18.488Z,95.66
2023-04-10T18:31:48.120Z,96.06
2023-04-10T18:34:16.999Z,95.92
2023-04-10T18:36:47.003Z,96.47
2023-04-10T18:39:15.792Z,96.88
2023-04-10T18:41:45.700Z,96.96
2023-04-10T18:44:14.572Z,97.36
2023-04-10T18:46:48.624Z,97.52
2023-04-10T18:49:22.861Z,97.75
2023-04-10T18:51:51.854Z,97.93
2023-04-10T18:54:20.807Z,98.13
2023-04-10T18:56:49.708Z,98.24
2023-04-10T18:59:18.717Z,98.21
2023-04-10T19:01:48.423Z,98.58
2023-04-10T19:04:17.392Z,98.39
2023-04-10T19:06:47.260Z,98.42
2023-04-10T19:09:16.012Z,98.82
2023-04-10T19:11:45.096Z,99.11
2023-04-10T19:14:15.864Z,98.98
2023-04-10T19:16:44.910Z,99.29
2023-04-10T19:19:14.220Z,99.43
2023-04-10T19:21:51.154Z,99.83
2023-04-10T19:24:20.037Z,99.95
2023-04-10T19:26:48.907Z,99.96
2023-04-10T19:29:21.858Z,100.00
2023-04-10T19:31:51.733Z,100.00
2023-04-10T19:34:21.961Z,100.00
2023-04-10T19:36:51.549Z,100.00
2023-04-10T19:39:20.425Z,100.00
2023-04-10T19:41:49.321Z,100.00
2023-04-10T19:44:18.698Z,100.00
2023-04-10T19:46:55.196Z,100.00
2023-04-10T19:49:27.216Z,100.00
2023-04-10T19:51:57.873Z,100.00
2023-04-10T19:54:26.544Z,100.00
2023-04-10T19:56:57.988Z,100.00
2023-04-10T19:59:27.041Z,100.00
2023-04-10T20:01:56.694Z,100.00
2023-04-10T20:04:25.832Z,100.00
2023-04-10T20:06:58.276Z,100.00
2023-04-10T20:09:27.255Z,100.00
2023-04-10T20:11:57.694Z,100.00
2023-04-10T20:14:30.227Z,100.00
2023-04-10T20:16:59.669Z,100.00
2023-04-10T20:19:28.580Z,100.00
2023-04-10T20:22:01.522Z,100.00
2023-04-10T20:24:31.588Z,100.00
2023-04-10T20:27:00.503Z,100.00
2023-04-10T20:29:29.650Z,100.00
2023-04-10T20:31:58.652Z,100.00
2023-04-10T20:34:28.211Z,100.00
2023-04-10T20:36:58.317Z,100.00
2023-04-10T20:39:27.291Z,100.00
2023-04-10T20:41:57.474Z,100.00
2023-04-10T20:44:27.322Z,100.00
2023-04-10T20:46:56.347Z,100.00
2023-04-10T20:49:25.555Z,100.00
2023-04-10T20:51:54.355Z,100.00
2023-04-10T20:54:24.371Z,100.00
2023-04-10T20:56:54.224Z,100.00
2023-04-10T20:59:23.175Z,100.00
2023-04-10T21:01:53.091Z,100.00
2023-04-10T21:04:22.803Z,100.00
2023-04-10T21:06:51.849Z,100.00
2023-04-10T21:09:22.244Z,100.00
2023-04-10T21:11:51.225Z,100.00
2023-04-10T21:14:20.300Z,100.00
2023-04-10T21:16:49.899Z,100.00
2023-04-10T21:19:19.219Z,100.00
2023-04-10T21:21:51.608Z,100.00
2023-04-10T21:24:20.506Z,100.00
2023-04-10T21:26:49.612Z,100.00
2023-04-10T21:29:19.312Z,100.00
2023-04-10T21:31:50.470Z,100.00
2023-04-10T21:34:28.578Z,100.00
2023-04-10T21:36:57.746Z,100.00
2023-04-10T21:39:26.844Z,100.00
2023-04-10T21:41:55.860Z,100.00
2023-04-10T21:44:24.760Z,100.00
2023-04-10T21:46:54.424Z,100.00
2023-04-10T21:49:23.804Z,100.00
2023-04-10T21:51:53.014Z,100.00
2023-04-10T21:54:22.152Z,100.00
2023-04-10T21:56:51.327Z,100.00
2023-04-10T21:59:21.317Z,100.00
2023-04-10T22:01:50.614Z,100.00
2023-04-10T22:04:19.830Z,100.00
2023-04-10T22:06:49.076Z,100.00
2023-04-10T22:09:18.381Z,100.00
2023-04-10T22:11:47.305Z,100.00
2023-04-10T22:14:20.767Z,100.00
2023-04-10T22:16:50.766Z,100.00
2023-04-10T22:19:20.120Z,100.00
2023-04-10T22:21:52.505Z,100.00
2023-04-10T22:24:21.569Z,100.00
2023-04-10T22:26:50.498Z,100.00
2023-04-10T22:29:19.739Z,100.00
2023-04-10T22:31:49.163Z,100.00
2023-04-10T22:34:18.209Z,100.00
2023-04-10T22:36:47.257Z,100.00
2023-04-10T22:39:16.279Z,100.00
2023-04-10T22:41:45.756Z,100.00
2023-04-10T22:44:15.493Z,100.00
2023-04-10T22:46:49.793Z,100.00
2023-04-10T22:49:20.035Z,100.00
2023-04-10T22:51:49.325Z,100.00
2023-04-10T22:54:18.646Z,100.00
2023-04-10T22:56:49.241Z,100.00
2023-04-10T22:59:19.258Z,100.00
2023-04-10T23:01:48.330Z,100.00
2023-04-10T23:04:17.492Z,100.00
2023-04-10T23:06:47.228Z,100.00
2023-04-10T23:09:17.084Z,100.00
2023-04-10T23:11:48.252Z,100.00
2023-04-10T23:14:17.708Z,100.00
2023-04-10T23:16:47.679Z,100.00
2023-04-10T23:19:16.500Z,100.00
2023-04-10T23:21:45.961Z,100.00
2023-04-10T23:24:15.891Z,100.00
2023-04-10T23:26:44.774Z,100.00
2023-04-10T23:29:15.803Z,100.00
2023-04-10T23:31:44.914Z,100.00
2023-04-10T23:34:22.765Z,100.00
2023-04-10T23:36:51.848Z,100.00
2023-04-10T23:39:20.720Z,100.00
2023-04-10T23:41:57.539Z,100.00
2023-04-10T23:44:26.736Z,100.00
2023-04-10T23:46:56.530Z,100.00
2023-04-10T23:49:25.804Z,100.00
2023-04-10T23:51:55.091Z,100.00
2023-04-10T23:54:33.324Z,100.00
2023-04-10T23:57:03.017Z,100.00
2023-04-10T23:59:32.230Z,100.00
